sensor_id;sensor_type;location;lat;lon;timestamp;pressure;altitude;pressure_sealevel;temperature;humidity
7906;BME280;13291;40.472;-3.878;2023-05-23T00:01:20;53148.00;;;-139.96;61.39
7906;BME280;13291;40.472;-3.878;2023-05-23T00:03:49;53152.00;;;-139.96;61.48
7906;BME280;13291;40.472;-3.878;2023-05-23T00:06:19;53126.00;;;-139.96;61.49
7906;BME280;13291;40.472;-3.878;2023-05-23T00:08:46;53152.00;;;-139.96;61.76
7906;BME280;13291;40.472;-3.878;2023-05-23T00:11:15;53142.00;;;-139.96;61.57
7906;BME280;13291;40.472;-3.878;2023-05-23T00:13:44;53138.00;;;-139.96;61.63
7906;BME280;13291;40.472;-3.878;2023-05-23T00:16:11;53146.00;;;-139.96;61.53
7906;BME280;13291;40.472;-3.878;2023-05-23T00:18:39;53158.03;;;-139.96;60.60
7906;BME280;13291;40.472;-3.878;2023-05-23T00:21:07;53168.03;;;-139.96;59.93
7906;BME280;13291;40.472;-3.878;2023-05-23T00:23:34;53180.03;;;-139.96;59.44
7906;BME280;13291;40.472;-3.878;2023-05-23T00:26:01;53138.00;;;-139.96;59.22
7906;BME280;13291;40.472;-3.878;2023-05-23T00:28:29;53170.03;;;-139.96;59.02
7906;BME280;13291;40.472;-3.878;2023-05-23T00:30:56;53146.00;;;-139.96;58.28
7906;BME280;13291;40.472;-3.878;2023-05-23T00:33:23;53150.00;;;-139.96;58.71
7906;BME280;13291;40.472;-3.878;2023-05-23T00:35:50;53134.00;;;-139.96;58.26
7906;BME280;13291;40.472;-3.878;2023-05-23T00:38:17;53148.00;;;-139.96;58.44
7906;BME280;13291;40.472;-3.878;2023-05-23T00:40:44;53148.00;;;-139.96;58.25
7906;BME280;13291;40.472;-3.878;2023-05-23T00:43:12;53152.00;;;-139.96;57.76
7906;BME280;13291;40.472;-3.878;2023-05-23T00:45:41;53134.00;;;-139.96;58.28
7906;BME280;13291;40.472;-3.878;2023-05-23T00:48:08;53118.00;;;-139.96;57.90
7906;BME280;13291;40.472;-3.878;2023-05-23T00:50:36;53108.00;;;-139.96;57.74
7906;BME280;13291;40.472;-3.878;2023-05-23T00:53:03;53144.00;;;-139.96;57.57
7906;BME280;13291;40.472;-3.878;2023-05-23T00:55:31;53114.00;;;-139.96;57.18
7906;BME280;13291;40.472;-3.878;2023-05-23T00:57:58;53114.00;;;-139.96;57.44
7906;BME280;13291;40.472;-3.878;2023-05-23T01:00:27;53146.00;;;-139.96;57.41
7906;BME280;13291;40.472;-3.878;2023-05-23T01:02:56;53148.00;;;-139.96;57.72
7906;BME280;13291;40.472;-3.878;2023-05-23T01:05:23;53152.00;;;-139.96;57.49
7906;BME280;13291;40.472;-3.878;2023-05-23T01:07:50;53134.00;;;-139.96;57.69
7906;BME280;13291;40.472;-3.878;2023-05-23T01:10:20;53114.00;;;-139.96;57.55
7906;BME280;13291;40.472;-3.878;2023-05-23T01:12:57;53138.00;;;-139.96;58.47
7906;BME280;13291;40.472;-3.878;2023-05-23T01:15:31;53122.00;;;-139.96;58.35
7906;BME280;13291;40.472;-3.878;2023-05-23T01:18:06;53130.00;;;-139.96;58.61
7906;BME280;13291;40.472;-3.878;2023-05-23T01:20:39;53138.00;;;-139.96;58.75
7906;BME280;13291;40.472;-3.878;2023-05-23T01:23:19;53160.03;;;-139.96;58.86
7906;BME280;13291;40.472;-3.878;2023-05-23T01:26:02;53142.00;;;-139.96;58.66
7906;BME280;13291;40.472;-3.878;2023-05-23T01:28:36;53114.00;;;-139.96;58.23
7906;BME280;13291;40.472;-3.878;2023-05-23T01:31:07;53124.00;;;-139.96;58.50
7906;BME280;13291;40.472;-3.878;2023-05-23T01:33:37;53146.00;;;-139.96;58.89
7906;BME280;13291;40.472;-3.878;2023-05-23T01:36:05;53134.00;;;-139.96;59.09
7906;BME280;13291;40.472;-3.878;2023-05-23T01:38:33;53144.00;;;-139.96;58.93
7906;BME280;13291;40.472;-3.878;2023-05-23T01:41:00;53172.03;;;-139.96;61.34
7906;BME280;13291;40.472;-3.878;2023-05-23T01:43:27;53172.03;;;-139.96;61.68
7906;BME280;13291;40.472;-3.878;2023-05-23T01:45:55;53136.00;;;-139.96;62.02
7906;BME280;13291;40.472;-3.878;2023-05-23T01:48:24;53146.00;;;-139.96;62.08
7906;BME280;13291;40.472;-3.878;2023-05-23T01:50:52;53106.00;;;-139.96;62.63
7906;BME280;13291;40.472;-3.878;2023-05-23T01:53:22;53176.03;;;-139.96;62.21
7906;BME280;13291;40.472;-3.878;2023-05-23T01:55:50;53144.00;;;-139.96;62.59
7906;BME280;13291;40.472;-3.878;2023-05-23T01:58:17;53156.03;;;-139.96;62.30
7906;BME280;13291;40.472;-3.878;2023-05-23T02:00:44;53154.00;;;-139.96;62.04
7906;BME280;13291;40.472;-3.878;2023-05-23T02:03:13;53174.03;;;-139.96;62.15
7906;BME280;13291;40.472;-3.878;2023-05-23T02:05:40;53156.03;;;-139.96;62.12
7906;BME280;13291;40.472;-3.878;2023-05-23T02:08:07;53164.03;;;-139.96;62.39
7906;BME280;13291;40.472;-3.878;2023-05-23T02:10:33;53166.03;;;-139.96;61.96
7906;BME280;13291;40.472;-3.878;2023-05-23T02:13:00;53166.03;;;-139.96;62.23
7906;BME280;13291;40.472;-3.878;2023-05-23T02:15:27;53142.00;;;-139.96;62.31
7906;BME280;13291;40.472;-3.878;2023-05-23T02:17:54;53130.00;;;-139.96;62.34
7906;BME280;13291;40.472;-3.878;2023-05-23T02:20:22;53172.03;;;-139.96;62.11
7906;BME280;13291;40.472;-3.878;2023-05-23T02:22:49;53168.03;;;-139.96;62.07
7906;BME280;13291;40.472;-3.878;2023-05-23T02:25:16;53162.03;;;-139.96;61.67
7906;BME280;13291;40.472;-3.878;2023-05-23T02:27:43;53182.03;;;-139.96;61.57
7906;BME280;13291;40.472;-3.878;2023-05-23T02:30:11;53170.03;;;-139.96;61.53
7906;BME280;13291;40.472;-3.878;2023-05-23T02:32:37;53146.00;;;-139.96;60.95
7906;BME280;13291;40.472;-3.878;2023-05-23T02:35:05;53146.00;;;-139.96;61.34
7906;BME280;13291;40.472;-3.878;2023-05-23T02:37:33;53164.03;;;-139.96;61.16
7906;BME280;13291;40.472;-3.878;2023-05-23T02:40:00;53156.03;;;-139.96;61.32
7906;BME280;13291;40.472;-3.878;2023-05-23T02:42:27;53126.00;;;-139.96;61.56
7906;BME280;13291;40.472;-3.878;2023-05-23T02:44:54;53158.03;;;-139.96;61.13
7906;BME280;13291;40.472;-3.878;2023-05-23T02:47:21;53154.00;;;-139.96;61.15
7906;BME280;13291;40.472;-3.878;2023-05-23T02:49:48;53156.03;;;-139.96;61.03
7906;BME280;13291;40.472;-3.878;2023-05-23T02:52:15;53174.03;;;-139.96;61.07
7906;BME280;13291;40.472;-3.878;2023-05-23T02:54:43;53180.03;;;-139.96;61.53
7906;BME280;13291;40.472;-3.878;2023-05-23T02:57:10;53126.00;;;-139.96;60.97
7906;BME280;13291;40.472;-3.878;2023-05-23T02:59:37;53160.03;;;-139.96;61.49
7906;BME280;13291;40.472;-3.878;2023-05-23T03:02:04;53170.03;;;-139.96;61.01
7906;BME280;13291;40.472;-3.878;2023-05-23T03:04:31;53156.03;;;-139.96;61.11
7906;BME280;13291;40.472;-3.878;2023-05-23T03:06:58;53166.03;;;-139.96;60.95
7906;BME280;13291;40.472;-3.878;2023-05-23T03:09:25;53182.03;;;-139.96;61.32
7906;BME280;13291;40.472;-3.878;2023-05-23T03:11:53;53184.03;;;-139.96;61.73
7906;BME280;13291;40.472;-3.878;2023-05-23T03:14:20;53154.00;;;-139.96;60.75
7906;BME280;13291;40.472;-3.878;2023-05-23T03:16:47;53166.03;;;-139.96;60.57
7906;BME280;13291;40.472;-3.878;2023-05-23T03:19:14;53166.03;;;-139.96;60.27
7906;BME280;13291;40.472;-3.878;2023-05-23T03:21:41;53134.00;;;-139.96;60.48
7906;BME280;13291;40.472;-3.878;2023-05-23T03:24:08;53166.03;;;-139.96;59.99
7906;BME280;13291;40.472;-3.878;2023-05-23T03:26:36;53166.03;;;-139.96;60.25
7906;BME280;13291;40.472;-3.878;2023-05-23T03:29:04;53168.03;;;-139.96;59.90
7906;BME280;13291;40.472;-3.878;2023-05-23T03:31:31;53134.00;;;-139.96;59.59
7906;BME280;13291;40.472;-3.878;2023-05-23T03:33:58;53176.03;;;-139.96;59.81
7906;BME280;13291;40.472;-3.878;2023-05-23T03:36:25;53180.03;;;-139.96;59.71
7906;BME280;13291;40.472;-3.878;2023-05-23T03:38:53;53164.03;;;-139.96;59.38
7906;BME280;13291;40.472;-3.878;2023-05-23T03:41:20;53166.03;;;-139.96;59.45
7906;BME280;13291;40.472;-3.878;2023-05-23T03:43:47;53184.03;;;-139.96;59.43
7906;BME280;13291;40.472;-3.878;2023-05-23T03:46:15;53168.03;;;-139.96;59.50
7906;BME280;13291;40.472;-3.878;2023-05-23T03:48:42;53160.03;;;-139.96;59.34
7906;BME280;13291;40.472;-3.878;2023-05-23T03:51:09;53200.03;;;-139.96;59.83
7906;BME280;13291;40.472;-3.878;2023-05-23T03:53:37;53188.03;;;-139.96;60.10
7906;BME280;13291;40.472;-3.878;2023-05-23T03:56:05;53180.03;;;-139.96;60.28
7906;BME280;13291;40.472;-3.878;2023-05-23T03:58:31;53186.03;;;-139.96;59.49
7906;BME280;13291;40.472;-3.878;2023-05-23T04:00:58;53168.03;;;-139.96;59.79
7906;BME280;13291;40.472;-3.878;2023-05-23T04:03:28;53174.03;;;-139.96;59.04
7906;BME280;13291;40.472;-3.878;2023-05-23T04:05:57;53186.03;;;-139.96;59.44
7906;BME280;13291;40.472;-3.878;2023-05-23T04:08:24;53166.03;;;-139.96;58.68
7906;BME280;13291;40.472;-3.878;2023-05-23T04:10:50;53186.03;;;-139.96;58.68
7906;BME280;13291;40.472;-3.878;2023-05-23T04:13:17;53170.03;;;-139.96;59.22
7906;BME280;13291;40.472;-3.878;2023-05-23T04:15:45;53182.03;;;-139.96;58.81
7906;BME280;13291;40.472;-3.878;2023-05-23T04:18:12;53190.03;;;-139.96;58.20
7906;BME280;13291;40.472;-3.878;2023-05-23T04:20:40;53190.03;;;-139.96;58.77
7906;BME280;13291;40.472;-3.878;2023-05-23T04:23:07;53186.03;;;-139.96;57.70
7906;BME280;13291;40.472;-3.878;2023-05-23T04:25:34;53152.00;;;-139.96;57.65
7906;BME280;13291;40.472;-3.878;2023-05-23T04:28:01;53168.03;;;-139.96;57.62
7906;BME280;13291;40.472;-3.878;2023-05-23T04:30:29;53162.03;;;-139.96;57.51
7906;BME280;13291;40.472;-3.878;2023-05-23T04:32:56;53176.03;;;-139.96;57.84
7906;BME280;13291;40.472;-3.878;2023-05-23T04:35:24;53178.03;;;-139.96;57.55
7906;BME280;13291;40.472;-3.878;2023-05-23T04:37:54;53196.03;;;-139.96;57.41
7906;BME280;13291;40.472;-3.878;2023-05-23T04:40:21;53174.03;;;-139.96;57.55
7906;BME280;13291;40.472;-3.878;2023-05-23T04:42:48;53202.03;;;-139.96;57.16
7906;BME280;13291;40.472;-3.878;2023-05-23T04:45:16;53170.03;;;-139.96;57.14
7906;BME280;13291;40.472;-3.878;2023-05-23T04:47:43;53194.03;;;-139.96;56.85
7906;BME280;13291;40.472;-3.878;2023-05-23T04:50:11;53140.00;;;-139.96;56.89
7906;BME280;13291;40.472;-3.878;2023-05-23T04:52:39;53168.03;;;-139.96;56.55
7906;BME280;13291;40.472;-3.878;2023-05-23T04:55:07;53170.03;;;-139.96;56.38
7906;BME280;13291;40.472;-3.878;2023-05-23T04:57:34;53182.03;;;-139.96;56.63
7906;BME280;13291;40.472;-3.878;2023-05-23T05:00:02;53210.03;;;-139.96;57.26
7906;BME280;13291;40.472;-3.878;2023-05-23T05:02:32;53156.03;;;-139.96;56.80
7906;BME280;13291;40.472;-3.878;2023-05-23T05:05:01;53154.00;;;-139.96;56.21
7906;BME280;13291;40.472;-3.878;2023-05-23T05:07:28;53176.03;;;-139.96;55.94
7906;BME280;13291;40.472;-3.878;2023-05-23T05:09:55;53166.03;;;-139.96;55.79
7906;BME280;13291;40.472;-3.878;2023-05-23T05:12:23;53166.03;;;-139.96;56.32
7906;BME280;13291;40.472;-3.878;2023-05-23T05:14:50;53168.03;;;-139.96;55.81
7906;BME280;13291;40.472;-3.878;2023-05-23T05:17:17;53178.03;;;-139.96;55.90
7906;BME280;13291;40.472;-3.878;2023-05-23T05:19:44;53150.00;;;-139.96;55.55
7906;BME280;13291;40.472;-3.878;2023-05-23T05:22:11;53148.00;;;-139.96;55.77
7906;BME280;13291;40.472;-3.878;2023-05-23T05:24:38;53170.03;;;-139.96;55.80
7906;BME280;13291;40.472;-3.878;2023-05-23T05:27:06;53160.03;;;-139.96;55.89
7906;BME280;13291;40.472;-3.878;2023-05-23T05:29:35;53170.03;;;-139.96;55.87
7906;BME280;13291;40.472;-3.878;2023-05-23T05:32:02;53198.03;;;-139.96;56.49
7906;BME280;13291;40.472;-3.878;2023-05-23T05:34:29;53154.00;;;-139.96;56.16
7906;BME280;13291;40.472;-3.878;2023-05-23T05:36:56;53168.03;;;-139.96;56.78
7906;BME280;13291;40.472;-3.878;2023-05-23T05:39:23;53156.03;;;-139.96;56.12
7906;BME280;13291;40.472;-3.878;2023-05-23T05:41:51;53152.00;;;-139.96;55.64
7906;BME280;13291;40.472;-3.878;2023-05-23T05:44:17;53162.03;;;-139.96;55.44
7906;BME280;13291;40.472;-3.878;2023-05-23T05:46:46;53204.03;;;-139.96;55.55
7906;BME280;13291;40.472;-3.878;2023-05-23T05:49:13;53160.03;;;-139.96;55.02
7906;BME280;13291;40.472;-3.878;2023-05-23T05:51:40;53174.03;;;-139.96;54.81
7906;BME280;13291;40.472;-3.878;2023-05-23T05:54:07;53164.03;;;-139.96;54.59
7906;BME280;13291;40.472;-3.878;2023-05-23T05:56:35;53162.03;;;-139.96;54.41
7906;BME280;13291;40.472;-3.878;2023-05-23T05:59:02;53138.00;;;-139.96;54.39
7906;BME280;13291;40.472;-3.878;2023-05-23T06:01:28;53166.03;;;-139.96;54.20
7906;BME280;13291;40.472;-3.878;2023-05-23T06:03:57;53160.03;;;-139.96;54.21
7906;BME280;13291;40.472;-3.878;2023-05-23T06:06:24;53170.03;;;-139.96;54.01
7906;BME280;13291;40.472;-3.878;2023-05-23T06:08:51;53168.03;;;-139.96;53.96
7906;BME280;13291;40.472;-3.878;2023-05-23T06:11:18;53170.03;;;-139.96;54.40
7906;BME280;13291;40.472;-3.878;2023-05-23T06:13:44;53150.00;;;-139.96;54.53
7906;BME280;13291;40.472;-3.878;2023-05-23T06:16:11;53130.00;;;-139.96;54.95
7906;BME280;13291;40.472;-3.878;2023-05-23T06:18:39;53200.03;;;-139.96;54.76
7906;BME280;13291;40.472;-3.878;2023-05-23T06:21:08;53170.03;;;-139.96;55.22
7906;BME280;13291;40.472;-3.878;2023-05-23T06:23:34;53150.00;;;-139.96;55.07
7906;BME280;13291;40.472;-3.878;2023-05-23T06:26:01;53158.03;;;-139.96;54.60
7906;BME280;13291;40.472;-3.878;2023-05-23T06:28:32;53158.03;;;-139.96;54.65
7906;BME280;13291;40.472;-3.878;2023-05-23T06:30:59;53170.03;;;-139.96;54.94
7906;BME280;13291;40.472;-3.878;2023-05-23T06:33:26;53172.03;;;-139.96;54.70
7906;BME280;13291;40.472;-3.878;2023-05-23T06:35:53;53130.00;;;-139.96;55.02
7906;BME280;13291;40.472;-3.878;2023-05-23T06:38:21;53152.00;;;-139.96;54.39
7906;BME280;13291;40.472;-3.878;2023-05-23T06:40:48;53158.03;;;-139.96;54.26
7906;BME280;13291;40.472;-3.878;2023-05-23T06:43:15;53152.00;;;-139.96;54.52
7906;BME280;13291;40.472;-3.878;2023-05-23T06:45:44;53162.03;;;-139.96;53.71
7906;BME280;13291;40.472;-3.878;2023-05-23T06:48:11;53110.00;;;-139.96;53.56
7906;BME280;13291;40.472;-3.878;2023-05-23T06:50:38;53146.00;;;-139.96;54.03
7906;BME280;13291;40.472;-3.878;2023-05-23T06:53:05;53150.00;;;-139.96;53.04
7906;BME280;13291;40.472;-3.878;2023-05-23T06:55:34;53136.00;;;-139.96;53.27
7906;BME280;13291;40.472;-3.878;2023-05-23T06:58:01;53126.00;;;-139.96;52.71
7906;BME280;13291;40.472;-3.878;2023-05-23T07:00:28;53142.00;;;-139.96;52.99
7906;BME280;13291;40.472;-3.878;2023-05-23T07:02:55;53142.00;;;-139.96;53.11
7906;BME280;13291;40.472;-3.878;2023-05-23T07:05:25;53132.00;;;-139.96;53.33
7906;BME280;13291;40.472;-3.878;2023-05-23T07:07:53;53126.00;;;-139.96;52.84
7906;BME280;13291;40.472;-3.878;2023-05-23T07:10:20;53150.00;;;-139.96;52.55
7906;BME280;13291;40.472;-3.878;2023-05-23T07:12:48;53140.00;;;-139.96;52.52
7906;BME280;13291;40.472;-3.878;2023-05-23T07:15:15;53146.00;;;-139.96;51.82
7906;BME280;13291;40.472;-3.878;2023-05-23T07:17:42;53118.00;;;-139.96;52.12
7906;BME280;13291;40.472;-3.878;2023-05-23T07:20:10;53158.03;;;-139.96;52.14
7906;BME280;13291;40.472;-3.878;2023-05-23T07:22:37;53136.00;;;-139.96;52.23
7906;BME280;13291;40.472;-3.878;2023-05-23T07:25:04;53148.00;;;-139.96;51.86
7906;BME280;13291;40.472;-3.878;2023-05-23T07:27:31;53146.00;;;-139.96;51.98
7906;BME280;13291;40.472;-3.878;2023-05-23T07:30:00;53140.00;;;-139.96;51.61
7906;BME280;13291;40.472;-3.878;2023-05-23T07:32:27;53160.03;;;-139.96;51.96
7906;BME280;13291;40.472;-3.878;2023-05-23T07:34:54;53122.00;;;-139.96;51.89
7906;BME280;13291;40.472;-3.878;2023-05-23T07:37:21;53142.00;;;-139.96;52.00
7906;BME280;13291;40.472;-3.878;2023-05-23T07:39:47;53156.03;;;-139.96;52.62
7906;BME280;13291;40.472;-3.878;2023-05-23T07:42:14;53136.00;;;-139.96;52.34
7906;BME280;13291;40.472;-3.878;2023-05-23T07:44:41;53156.03;;;-139.96;52.59
7906;BME280;13291;40.472;-3.878;2023-05-23T07:47:09;53170.03;;;-139.96;52.78
7906;BME280;13291;40.472;-3.878;2023-05-23T07:49:36;53150.00;;;-139.96;52.64
7906;BME280;13291;40.472;-3.878;2023-05-23T07:52:03;53142.00;;;-139.96;52.37
7906;BME280;13291;40.472;-3.878;2023-05-23T07:54:31;53150.00;;;-139.96;52.97
7906;BME280;13291;40.472;-3.878;2023-05-23T07:56:58;53130.00;;;-139.96;52.91
7906;BME280;13291;40.472;-3.878;2023-05-23T07:59:25;53154.00;;;-139.96;52.76
7906;BME280;13291;40.472;-3.878;2023-05-23T08:01:52;53158.03;;;-139.96;53.19
7906;BME280;13291;40.472;-3.878;2023-05-23T08:04:20;53152.00;;;-139.96;52.95
7906;BME280;13291;40.472;-3.878;2023-05-23T08:06:47;53148.00;;;-139.96;53.54
7906;BME280;13291;40.472;-3.878;2023-05-23T08:09:14;53154.00;;;-139.96;53.17
7906;BME280;13291;40.472;-3.878;2023-05-23T08:11:41;53142.00;;;-139.96;53.36
7906;BME280;13291;40.472;-3.878;2023-05-23T08:14:08;53174.03;;;-139.96;52.87
7906;BME280;13291;40.472;-3.878;2023-05-23T08:16:34;53162.03;;;-139.96;53.35
7906;BME280;13291;40.472;-3.878;2023-05-23T08:19:02;53152.00;;;-139.96;52.66
7906;BME280;13291;40.472;-3.878;2023-05-23T08:21:30;53154.00;;;-139.96;52.60
7906;BME280;13291;40.472;-3.878;2023-05-23T08:23:57;53158.03;;;-139.96;52.85
7906;BME280;13291;40.472;-3.878;2023-05-23T08:26:24;53138.00;;;-139.96;52.97
7906;BME280;13291;40.472;-3.878;2023-05-23T08:28:52;53152.00;;;-139.96;53.75
7906;BME280;13291;40.472;-3.878;2023-05-23T08:31:19;53144.00;;;-139.96;53.15
7906;BME280;13291;40.472;-3.878;2023-05-23T08:33:46;53142.00;;;-139.96;53.12
7906;BME280;13291;40.472;-3.878;2023-05-23T08:36:13;53150.00;;;-139.96;53.10
7906;BME280;13291;40.472;-3.878;2023-05-23T08:38:41;53146.00;;;-139.96;53.32
7906;BME280;13291;40.472;-3.878;2023-05-23T08:41:15;53154.00;;;-139.96;52.92
7906;BME280;13291;40.472;-3.878;2023-05-23T08:43:44;53156.03;;;-139.96;53.25
7906;BME280;13291;40.472;-3.878;2023-05-23T08:46:11;53146.00;;;-139.96;52.85
7906;BME280;13291;40.472;-3.878;2023-05-23T08:48:38;53162.03;;;-139.96;52.53
7906;BME280;13291;40.472;-3.878;2023-05-23T08:51:08;53162.03;;;-139.96;52.74
7906;BME280;13291;40.472;-3.878;2023-05-23T08:53:35;53160.03;;;-139.96;52.58
7906;BME280;13291;40.472;-3.878;2023-05-23T08:56:05;53144.00;;;-139.96;52.21
7906;BME280;13291;40.472;-3.878;2023-05-23T08:58:34;53130.00;;;-139.96;52.81
7906;BME280;13291;40.472;-3.878;2023-05-23T09:01:03;53156.03;;;-139.96;53.02
7906;BME280;13291;40.472;-3.878;2023-05-23T09:03:30;53156.03;;;-139.96;52.45
7906;BME280;13291;40.472;-3.878;2023-05-23T09:05:57;53146.00;;;-139.96;52.22
7906;BME280;13291;40.472;-3.878;2023-05-23T09:08:24;53164.03;;;-139.96;52.03
7906;BME280;13291;40.472;-3.878;2023-05-23T09:10:51;53158.03;;;-139.96;52.24
7906;BME280;13291;40.472;-3.878;2023-05-23T09:13:20;53152.00;;;-139.96;52.27
7906;BME280;13291;40.472;-3.878;2023-05-23T09:16:02;53152.00;;;-139.96;51.37
7906;BME280;13291;40.472;-3.878;2023-05-23T09:18:33;53140.00;;;-139.96;51.82
7906;BME280;13291;40.472;-3.878;2023-05-23T09:21:01;53142.00;;;-139.96;51.85
7906;BME280;13291;40.472;-3.878;2023-05-23T09:23:31;53146.00;;;-139.96;51.42
7906;BME280;13291;40.472;-3.878;2023-05-23T09:26:01;53150.00;;;-139.96;51.38
7906;BME280;13291;40.472;-3.878;2023-05-23T09:28:30;53146.00;;;-139.96;50.73
7906;BME280;13291;40.472;-3.878;2023-05-23T09:30:57;53150.00;;;-139.96;50.83
7906;BME280;13291;40.472;-3.878;2023-05-23T09:33:29;53176.03;;;-139.96;50.89
7906;BME280;13291;40.472;-3.878;2023-05-23T09:35:58;53142.00;;;-139.96;50.71
7906;BME280;13291;40.472;-3.878;2023-05-23T09:38:27;53150.00;;;-139.96;50.19
7906;BME280;13291;40.472;-3.878;2023-05-23T09:40:54;53152.00;;;-139.96;50.61
7906;BME280;13291;40.472;-3.878;2023-05-23T09:43:22;53154.00;;;-139.96;50.19
7906;BME280;13291;40.472;-3.878;2023-05-23T09:48:18;53132.00;;;-139.96;50.23
7906;BME280;13291;40.472;-3.878;2023-05-23T09:50:45;53114.00;;;-139.96;49.34
7906;BME280;13291;40.472;-3.878;2023-05-23T09:53:16;53132.00;;;-139.96;49.52
7906;BME280;13291;40.472;-3.878;2023-05-23T09:55:46;53130.00;;;-139.96;49.00
7906;BME280;13291;40.472;-3.878;2023-05-23T09:58:14;53116.00;;;-139.96;49.55
7906;BME280;13291;40.472;-3.878;2023-05-23T10:00:44;53100.00;;;-139.96;49.22
7906;BME280;13291;40.472;-3.878;2023-05-23T10:03:15;53118.00;;;-139.96;48.46
7906;BME280;13291;40.472;-3.878;2023-05-23T10:05:44;53142.00;;;-139.96;47.44
7906;BME280;13291;40.472;-3.878;2023-05-23T10:08:15;53138.00;;;-139.96;47.96
7906;BME280;13291;40.472;-3.878;2023-05-23T10:14:01;53138.00;;;-139.96;48.27
7906;BME280;13291;40.472;-3.878;2023-05-23T10:16:34;53138.00;;;-139.96;48.57
7906;BME280;13291;40.472;-3.878;2023-05-23T10:19:23;53126.00;;;-139.96;47.39
7906;BME280;13291;40.472;-3.878;2023-05-23T10:21:55;53098.00;;;-139.96;46.30
7906;BME280;13291;40.472;-3.878;2023-05-23T10:24:24;53114.00;;;-139.96;46.71
7906;BME280;13291;40.472;-3.878;2023-05-23T10:26:51;53100.00;;;-139.96;46.08
7906;BME280;13291;40.472;-3.878;2023-05-23T10:29:19;53104.00;;;-139.96;45.86
7906;BME280;13291;40.472;-3.878;2023-05-23T10:31:47;53106.00;;;-139.96;45.89
7906;BME280;13291;40.472;-3.878;2023-05-23T10:34:22;53116.00;;;-139.96;46.97
7906;BME280;13291;40.472;-3.878;2023-05-23T10:36:56;53124.00;;;-139.96;46.61
7906;BME280;13291;40.472;-3.878;2023-05-23T10:42:14;53138.00;;;-139.96;46.40
7906;BME280;13291;40.472;-3.878;2023-05-23T10:44:43;53130.00;;;-139.96;46.55
7906;BME280;13291;40.472;-3.878;2023-05-23T10:47:09;53098.00;;;-139.96;45.98
7906;BME280;13291;40.472;-3.878;2023-05-23T10:49:39;53090.00;;;-139.96;45.66
7906;BME280;13291;40.472;-3.878;2023-05-23T10:52:07;53074.00;;;-139.96;44.78
7906;BME280;13291;40.472;-3.878;2023-05-23T10:54:35;53090.00;;;-139.96;43.19
7906;BME280;13291;40.472;-3.878;2023-05-23T10:57:03;53106.00;;;-139.96;43.68
7906;BME280;13291;40.472;-3.878;2023-05-23T10:59:31;53090.00;;;-139.96;43.99
7906;BME280;13291;40.472;-3.878;2023-05-23T11:01:59;53118.00;;;-139.96;44.43
7906;BME280;13291;40.472;-3.878;2023-05-23T11:04:27;53116.00;;;-139.96;44.99
7906;BME280;13291;40.472;-3.878;2023-05-23T11:06:56;53098.00;;;-139.96;45.02
7906;BME280;13291;40.472;-3.878;2023-05-23T11:09:23;53128.00;;;-139.96;45.58
7906;BME280;13291;40.472;-3.878;2023-05-23T11:11:54;53082.00;;;-139.96;44.48
7906;BME280;13291;40.472;-3.878;2023-05-23T11:14:50;53088.00;;;-139.96;43.57
7906;BME280;13291;40.472;-3.878;2023-05-23T11:17:28;53084.00;;;-139.96;44.02
7906;BME280;13291;40.472;-3.878;2023-05-23T11:19:59;53090.00;;;-139.96;43.63
7906;BME280;13291;40.472;-3.878;2023-05-23T11:22:32;53056.00;;;-139.96;42.44
7906;BME280;13291;40.472;-3.878;2023-05-23T11:25:00;53060.00;;;-139.96;42.17
7906;BME280;13291;40.472;-3.878;2023-05-23T11:27:29;53118.00;;;-139.96;41.31
7906;BME280;13291;40.472;-3.878;2023-05-23T11:30:01;53088.00;;;-139.96;40.93
7906;BME280;13291;40.472;-3.878;2023-05-23T11:32:30;53074.00;;;-139.96;40.93
7906;BME280;13291;40.472;-3.878;2023-05-23T11:35:00;53052.00;;;-139.96;40.96
7906;BME280;13291;40.472;-3.878;2023-05-23T11:37:27;53064.00;;;-139.96;40.16
7906;BME280;13291;40.472;-3.878;2023-05-23T11:39:56;53074.00;;;-139.96;40.20
7906;BME280;13291;40.472;-3.878;2023-05-23T11:42:24;53064.00;;;-139.96;40.51
7906;BME280;13291;40.472;-3.878;2023-05-23T11:44:51;53042.00;;;-139.96;39.13
7906;BME280;13291;40.472;-3.878;2023-05-23T11:47:18;53040.00;;;-139.96;38.69
7906;BME280;13291;40.472;-3.878;2023-05-23T11:49:46;53066.00;;;-139.96;39.59
7906;BME280;13291;40.472;-3.878;2023-05-23T11:52:13;53042.00;;;-139.96;39.13
7906;BME280;13291;40.472;-3.878;2023-05-23T11:54:40;53060.00;;;-139.96;38.57
7906;BME280;13291;40.472;-3.878;2023-05-23T11:57:10;53062.00;;;-139.96;38.91
7906;BME280;13291;40.472;-3.878;2023-05-23T11:59:38;53026.00;;;-139.96;37.66
7906;BME280;13291;40.472;-3.878;2023-05-23T12:02:05;53058.00;;;-139.96;38.39
7906;BME280;13291;40.472;-3.878;2023-05-23T12:04:33;53064.00;;;-139.96;38.52
7906;BME280;13291;40.472;-3.878;2023-05-23T12:07:04;53044.00;;;-139.96;38.85
7906;BME280;13291;40.472;-3.878;2023-05-23T12:09:33;53050.00;;;-139.96;38.52
7906;BME280;13291;40.472;-3.878;2023-05-23T12:12:06;53062.00;;;-139.96;38.44
7906;BME280;13291;40.472;-3.878;2023-05-23T12:14:35;53038.00;;;-139.96;37.52
7906;BME280;13291;40.472;-3.878;2023-05-23T12:17:09;53020.00;;;-139.96;37.62
7906;BME280;13291;40.472;-3.878;2023-05-23T12:19:37;53062.00;;;-139.96;37.61
7906;BME280;13291;40.472;-3.878;2023-05-23T12:22:05;53014.00;;;-139.96;36.97
7906;BME280;13291;40.472;-3.878;2023-05-23T12:24:32;53026.00;;;-139.96;38.11
7906;BME280;13291;40.472;-3.878;2023-05-23T12:27:01;53042.00;;;-139.96;37.76
7906;BME280;13291;40.472;-3.878;2023-05-23T12:29:30;53058.00;;;-139.96;37.63
7906;BME280;13291;40.472;-3.878;2023-05-23T12:31:59;53030.00;;;-139.96;38.22
7906;BME280;13291;40.472;-3.878;2023-05-23T12:34:27;53062.00;;;-139.96;36.89
7906;BME280;13291;40.472;-3.878;2023-05-23T12:36:54;53026.00;;;-139.96;36.37
7906;BME280;13291;40.472;-3.878;2023-05-23T12:39:26;53062.00;;;-139.96;36.92
7906;BME280;13291;40.472;-3.878;2023-05-23T12:41:53;53032.00;;;-139.96;36.19
7906;BME280;13291;40.472;-3.878;2023-05-23T12:44:22;53030.00;;;-139.96;35.94
7906;BME280;13291;40.472;-3.878;2023-05-23T12:46:49;53078.00;;;-139.96;36.25
7906;BME280;13291;40.472;-3.878;2023-05-23T12:49:18;53038.00;;;-139.96;36.16
7906;BME280;13291;40.472;-3.878;2023-05-23T12:51:46;53032.00;;;-139.96;35.39
7906;BME280;13291;40.472;-3.878;2023-05-23T12:54:13;53016.00;;;-139.96;35.14